createdAt,value
2022-10-10T00:01:38.041Z,10.70
2022-10-10T00:04:07.778Z,10.80
2022-10-10T00:06:36.410Z,10.80
2022-10-10T00:09:07.144Z,10.90
2022-10-10T00:11:37.745Z,10.90
2022-10-10T00:14:06.819Z,11.00
2022-10-10T00:16:35.116Z,10.90
2022-10-10T00:19:03.310Z,10.90
2022-10-10T00:21:31.561Z,10.90
2022-10-10T00:24:01.167Z,10.90
2022-10-10T00:26:29.739Z,11.00
2022-10-10T00:28:59.514Z,11.00
2022-10-10T00:31:27.687Z,11.00
2022-10-10T00:33:56.062Z,11.00
2022-10-10T00:36:24.231Z,11.10
2022-10-10T00:38:53.196Z,11.20
2022-10-10T00:41:22.487Z,11.30
2022-10-10T00:44:08.120Z,11.30
2022-10-10T00:46:36.508Z,11.40
2022-10-10T00:49:14.018Z,11.40
2022-10-10T00:51:45.034Z,11.40
2022-10-10T00:54:17.458Z,11.50
2022-10-10T00:56:53.944Z,11.50
2022-10-10T00:59:27.009Z,11.50
2022-10-10T01:01:55.130Z,11.50
2022-10-10T01:04:41.767Z,11.60
2022-10-10T01:07:19.401Z,11.60
2022-10-10T01:09:50.528Z,11.60
2022-10-10T01:12:28.401Z,11.60
2022-10-10T01:15:10.282Z,11.60
2022-10-10T01:17:48.085Z,11.60
2022-10-10T01:21:02.797Z,11.70
2022-10-10T01:24:15.775Z,11.70
2022-10-10T01:27:08.858Z,11.70
2022-10-10T01:29:44.903Z,11.80
2022-10-10T01:32:20.774Z,11.70
2022-10-10T01:35:04.924Z,11.80
2022-10-10T01:37:46.840Z,11.70
2022-10-10T01:40:30.132Z,11.70
2022-10-10T01:43:03.457Z,11.70
2022-10-10T01:45:33.478Z,11.70
2022-10-10T01:48:04.803Z,11.70
2022-10-10T01:50:44.731Z,11.60
2022-10-10T01:53:20.541Z,11.60
2022-10-10T01:55:57.799Z,11.60
2022-10-10T01:59:04.895Z,11.50
2022-10-10T02:01:45.682Z,11.50
2022-10-10T02:04:26.564Z,11.40
2022-10-10T02:07:04.752Z,11.50
2022-10-10T02:09:39.797Z,11.50
2022-10-10T02:12:12.107Z,11.40
2022-10-10T02:14:46.213Z,11.40
2022-10-10T02:17:19.188Z,11.40
2022-10-10T02:19:53.991Z,11.40
2022-10-10T02:22:24.565Z,11.30
2022-10-10T02:24:54.401Z,11.30
2022-10-10T02:27:31.162Z,11.30
2022-10-10T02:30:03.553Z,11.20
2022-10-10T02:32:39.531Z,11.20
2022-10-10T02:35:14.100Z,11.20
2022-10-10T02:37:46.086Z,11.20
2022-10-10T02:40:21.761Z,11.20
2022-10-10T02:42:52.356Z,11.10
2022-10-10T02:45:23.983Z,11.10
2022-10-10T02:47:53.834Z,11.10
2022-10-10T02:50:23.565Z,11.10
2022-10-10T02:52:52.540Z,11.10
2022-10-10T02:55:21.442Z,11.10
2022-10-10T02:57:49.997Z,11.10
2022-10-10T03:00:19.554Z,11.00
2022-10-10T03:02:48.171Z,11.00
2022-10-10T03:05:18.473Z,10.90
2022-10-10T03:07:46.595Z,10.80
2022-10-10T03:10:15.011Z,10.90
2022-10-10T03:12:43.677Z,10.80
2022-10-10T03:15:12.413Z,10.90
2022-10-10T03:17:41.514Z,10.90
2022-10-10T03:20:11.414Z,11.00
2022-10-10T03:22:41.261Z,10.90
2022-10-10T03:25:09.488Z,10.90
2022-10-10T03:27:38.913Z,10.90
2022-10-10T03:30:08.662Z,11.00
2022-10-10T03:32:37.097Z,10.90
2022-10-10T03:35:06.742Z,10.90
2022-10-10T03:37:34.999Z,10.90
2022-10-10T03:40:05.548Z,10.90
2022-10-10T03:42:33.712Z,10.90
2022-10-10T03:45:01.844Z,11.00
2022-10-10T03:47:29.947Z,11.00
2022-10-10T03:49:58.855Z,11.00
2022-10-10T03:52:27.180Z,10.90
2022-10-10T03:54:56.066Z,10.90
2022-10-10T03:57:25.676Z,10.90
2022-10-10T03:59:54.467Z,10.80
2022-10-10T04:02:22.565Z,10.90
2022-10-10T04:04:50.578Z,10.90
2022-10-10T04:07:18.694Z,10.90
2022-10-10T04:09:47.204Z,10.90
2022-10-10T04:12:15.360Z,10.90
2022-10-10T04:14:44.809Z,10.90
2022-10-10T04:17:13.866Z,10.90
2022-10-10T04:19:42.703Z,10.90
2022-10-10T04:22:11.446Z,10.90
2022-10-10T04:24:39.929Z,10.90
2022-10-10T04:32:19.240Z,11.00
2022-10-10T04:34:47.396Z,11.00
2022-10-10T04:37:16.138Z,11.00
2022-10-10T04:39:44.208Z,11.00
2022-10-10T04:42:12.939Z,11.00
2022-10-10T04:44:41.016Z,11.00
2022-10-10T04:47:09.437Z,11.00
2022-10-10T04:49:38.904Z,10.90
2022-10-10T04:52:07.045Z,11.00
2022-10-10T04:54:35.801Z,11.00
2022-10-10T04:57:04.732Z,11.00
2022-10-10T04:59:33.633Z,11.00
2022-10-10T05:02:02.135Z,11.00
2022-10-10T05:04:30.763Z,10.90
2022-10-10T05:07:00.579Z,11.00
2022-10-10T05:09:28.685Z,10.90
2022-10-10T05:11:56.839Z,11.00
2022-10-10T05:14:25.091Z,11.00
2022-10-10T05:16:53.434Z,11.00
2022-10-10T05:19:21.593Z,10.90
2022-10-10T05:21:49.797Z,11.00
2022-10-10T05:24:19.345Z,11.00
2022-10-10T05:26:47.453Z,10.90
2022-10-10T05:29:15.580Z,10.90
2022-10-10T05:31:44.158Z,10.90
2022-10-10T05:34:14.547Z,10.90
2022-10-10T05:36:43.153Z,10.80
2022-10-10T05:39:11.355Z,10.90
2022-10-10T05:41:40.900Z,10.90
2022-10-10T05:44:10.546Z,11.00
2022-10-10T05:46:38.758Z,11.00
2022-10-10T05:49:07.726Z,11.10
2022-10-10T05:51:35.855Z,11.10
2022-10-10T05:54:05.444Z,11.20
2022-10-10T05:56:33.784Z,11.20
2022-10-10T05:59:03.348Z,11.30
2022-10-10T06:01:31.960Z,11.30
2022-10-10T06:04:00.465Z,11.40
2022-10-10T06:06:29.205Z,11.50
2022-10-10T06:08:57.522Z,11.50
2022-10-10T06:11:27.011Z,11.60
2022-10-10T06:13:55.189Z,11.60
2022-10-10T06:16:28.556Z,11.70
2022-10-10T06:18:57.656Z,11.70
2022-10-10T06:21:27.948Z,11.80
2022-10-10T06:23:56.608Z,11.80
2022-10-10T06:26:24.781Z,11.90
2022-10-10T06:28:53.272Z,12.00
2022-10-10T06:31:21.568Z,12.00
2022-10-10T06:33:53.307Z,12.00
2022-10-10T06:36:21.918Z,12.00
2022-10-10T06:38:50.151Z,12.00
2022-10-10T06:41:18.304Z,12.10
2022-10-10T06:43:46.943Z,12.10
2022-10-10T06:46:15.163Z,12.10
2022-10-10T06:48:44.413Z,12.10
2022-10-10T06:51:17.053Z,12.10
2022-10-10T06:53:47.225Z,12.20
2022-10-10T06:56:26.397Z,12.10
2022-10-10T06:58:56.482Z,12.10
2022-10-10T07:01:27.537Z,12.10
2022-10-10T07:03:55.840Z,12.00
2022-10-10T07:06:25.908Z,12.10
2022-10-10T07:08:53.998Z,12.20
2022-10-10T07:11:22.407Z,12.20
2022-10-10T07:13:53.775Z,12.20
2022-10-10T07:16:23.477Z,12.20
2022-10-10T07:18:51.824Z,12.20
2022-10-10T07:21:20.456Z,12.20
2022-10-10T07:23:50.208Z,12.20
2022-10-10T07:26:22.067Z,12.30
2022-10-10T07:28:50.687Z,12.30
2022-10-10T07:31:19.178Z,12.30
2022-10-10T07:33:51.033Z,12.40
2022-10-10T07:36:20.584Z,12.40
2022-10-10T07:38:53.087Z,12.50
2022-10-10T07:41:22.813Z,12.50
2022-10-10T07:43:56.865Z,12.50
2022-10-10T07:46:25.409Z,12.50
2022-10-10T07:48:53.530Z,12.50
2022-10-10T07:51:22.155Z,12.60
2022-10-10T07:53:53.423Z,12.70
2022-10-10T07:56:21.579Z,12.70
2022-10-10T07:58:49.811Z,12.70
2022-10-10T08:01:19.256Z,12.80
2022-10-10T08:03:48.637Z,12.80
2022-10-10T08:06:18.863Z,12.90
2022-10-10T08:08:52.466Z,13.00
2022-10-10T08:11:22.621Z,13.10
2022-10-10T08:13:52.501Z,13.20
2022-10-10T08:16:21.461Z,13.30
2022-10-10T08:18:50.229Z,13.40
2022-10-10T08:21:19.303Z,13.60
2022-10-10T08:23:48.116Z,13.80
2022-10-10T08:26:19.914Z,13.90
2022-10-10T08:28:48.744Z,14.10
2022-10-10T08:31:21.104Z,14.20
2022-10-10T08:33:52.512Z,14.30
2022-10-10T08:36:24.921Z,14.30
2022-10-10T08:38:57.426Z,14.40
2022-10-10T08:41:42.944Z,14.40
2022-10-10T08:44:24.080Z,14.50
2022-10-10T08:46:57.740Z,14.60
2022-10-10T08:49:34.496Z,14.70
2022-10-10T08:52:14.189Z,14.80
2022-10-10T08:54:44.025Z,15.00
2022-10-10T08:57:26.024Z,15.00
2022-10-10T09:00:00.831Z,15.10
2022-10-10T09:02:55.824Z,15.20
2022-10-10T09:05:39.213Z,15.30
2022-10-10T09:08:27.031Z,15.40
2022-10-10T09:11:02.926Z,15.60
2022-10-10T09:13:40.852Z,15.70
2022-10-10T09:16:34.762Z,15.90
2022-10-10T09:19:24.187Z,16.00
2022-10-10T09:21:59.539Z,16.20
2022-10-10T09:24:37.845Z,16.30
2022-10-10T09:27:17.975Z,16.30
2022-10-10T09:29:52.668Z,16.50
2022-10-10T09:32:26.742Z,16.60
2022-10-10T09:35:02.884Z,16.70
2022-10-10T09:37:47.644Z,16.80
2022-10-10T09:40:25.640Z,16.90
2022-10-10T09:42:54.569Z,17.00
2022-10-10T09:45:31.498Z,17.10
2022-10-10T09:47:59.828Z,17.20
2022-10-10T09:50:28.432Z,17.30
2022-10-10T09:52:59.762Z,17.40
2022-10-10T09:55:35.333Z,17.50
2022-10-10T09:58:17.605Z,17.60
2022-10-10T10:00:47.225Z,17.80
2022-10-10T10:03:18.908Z,18.00
2022-10-10T10:05:57.147Z,18.30
2022-10-10T10:08:31.389Z,18.50
2022-10-10T10:11:01.305Z,18.80
2022-10-10T10:13:34.057Z,19.10
2022-10-10T10:16:13.017Z,19.40
2022-10-10T10:18:43.552Z,20.00
2022-10-10T10:21:20.106Z,20.50
2022-10-10T10:23:56.796Z,21.10
2022-10-10T10:26:28.546Z,21.40
2022-10-10T10:28:58.825Z,21.90
2022-10-10T10:31:54.884Z,22.20
2022-10-10T10:34:47.051Z,22.60
2022-10-10T10:37:23.219Z,22.90
2022-10-10T10:40:27.357Z,23.30
2022-10-10T10:43:42.268Z,23.70
2022-10-10T10:46:27.790Z,24.10
2022-10-10T10:49:03.801Z,24.60
2022-10-10T10:52:17.505Z,25.20
2022-10-10T10:55:11.876Z,25.50
2022-10-10T10:58:37.228Z,26.00
2022-10-10T11:01:38.677Z,26.50
2022-10-10T11:05:18.388Z,27.10
2022-10-10T11:07:20.414Z,27.50
2022-10-10T11:09:57.848Z,28.00
2022-10-10T11:12:48.158Z,28.50
2022-10-10T11:15:26.326Z,28.60
2022-10-10T11:18:04.332Z,28.50
2022-10-10T11:20:42.897Z,28.40
2022-10-10T11:23:19.182Z,28.50
2022-10-10T11:25:53.930Z,28.50
2022-10-10T11:28:28.032Z,28.60
2022-10-10T11:31:03.280Z,28.90
2022-10-10T11:33:40.175Z,28.60
2022-10-10T11:36:19.292Z,28.60
2022-10-10T11:38:57.304Z,28.90
2022-10-10T11:41:33.635Z,29.40
2022-10-10T11:44:10.312Z,29.70
2022-10-10T11:46:44.616Z,29.90
2022-10-10T11:49:23.090Z,30.50
2022-10-10T11:52:35.886Z,31.10
2022-10-10T11:55:16.814Z,31.10
2022-10-10T11:57:53.658Z,31.70
2022-10-10T12:00:22.655Z,32.10
2022-10-10T12:02:51.012Z,32.40
2022-10-10T12:05:24.242Z,32.20
2022-10-10T12:08:14.347Z,32.40
2022-10-10T12:10:53.936Z,33.10
2022-10-10T12:13:34.150Z,33.50
2022-10-10T12:16:08.774Z,34.00
2022-10-10T12:18:43.214Z,34.60
2022-10-10T12:21:14.215Z,34.50
2022-10-10T12:23:47.393Z,34.40
2022-10-10T12:26:17.671Z,34.60
2022-10-10T12:29:05.328Z,34.50
2022-10-10T12:31:36.151Z,34.40
2022-10-10T12:34:41.038Z,34.60
2022-10-10T12:37:22.770Z,34.50
2022-10-10T12:40:22.379Z,34.20
2022-10-10T12:43:25.034Z,33.80
2022-10-10T12:45:58.762Z,33.50
2022-10-10T12:48:27.111Z,33.70
2022-10-10T12:50:59.133Z,33.80
2022-10-10T12:53:31.001Z,33.60
2022-10-10T12:56:02.799Z,34.00
2022-10-10T12:58:33.840Z,34.10
2022-10-10T13:01:05.121Z,34.30
2022-10-10T13:03:37.293Z,34.70
2022-10-10T13:06:09.804Z,35.00
2022-10-10T13:08:41.849Z,34.80
2022-10-10T13:11:14.107Z,34.70
2022-10-10T13:13:50.557Z,35.00
2022-10-10T13:16:21.051Z,35.30
2022-10-10T13:18:51.705Z,35.70
2022-10-10T13:21:22.955Z,34.90
2022-10-10T13:26:46.594Z,32.60
2022-10-10T13:29:22.663Z,31.70
2022-10-10T13:31:52.154Z,30.80
2022-10-10T13:34:27.293Z,30.50
2022-10-10T13:36:57.819Z,30.40
2022-10-10T13:39:27.041Z,30.20
2022-10-10T13:41:57.924Z,30.10
2022-10-10T13:44:31.252Z,30.00
2022-10-10T13:46:59.807Z,30.30
2022-10-10T13:49:30.498Z,30.60
2022-10-10T13:52:03.912Z,31.00
2022-10-10T13:54:44.207Z,31.10
2022-10-10T13:57:20.090Z,30.70
2022-10-10T13:59:59.501Z,30.20
2022-10-10T14:02:32.863Z,29.90
2022-10-10T14:05:06.357Z,29.30
2022-10-10T14:07:35.060Z,28.70
2022-10-10T14:10:07.335Z,28.70
2022-10-10T14:12:42.745Z,28.70
2022-10-10T14:15:34.700Z,28.50
2022-10-10T14:18:03.803Z,28.10
2022-10-10T14:20:32.189Z,27.30
2022-10-10T14:23:01.600Z,26.70
2022-10-10T14:25:29.639Z,26.10
2022-10-10T14:27:59.136Z,25.60
2022-10-10T14:30:27.179Z,25.30
2022-10-10T14:32:55.251Z,25.00
2022-10-10T14:35:24.297Z,24.90
2022-10-10T14:37:52.488Z,24.70
2022-10-10T14:40:23.691Z,24.70
2022-10-10T14:42:52.207Z,24.50
2022-10-10T14:45:21.722Z,24.40
2022-10-10T14:47:50.331Z,24.20
2022-10-10T14:50:23.532Z,24.00
2022-10-10T14:52:52.305Z,23.70
2022-10-10T14:55:20.751Z,23.60
2022-10-10T14:57:50.334Z,23.20
2022-10-10T15:00:24.826Z,23.30
2022-10-10T15:02:53.374Z,23.30
2022-10-10T15:05:23.510Z,23.10
2022-10-10T15:07:53.808Z,23.00
2022-10-10T15:10:37.585Z,22.90
2022-10-10T15:13:06.291Z,22.80
2022-10-10T15:15:35.930Z,22.80
2022-10-10T15:18:05.106Z,22.50
2022-10-10T15:20:33.603Z,22.40
2022-10-10T15:23:05.184Z,22.30
2022-10-10T15:25:34.547Z,22.20
2022-10-10T15:28:04.457Z,22.00
2022-10-10T15:30:32.848Z,21.90
2022-10-10T15:33:02.323Z,21.90
2022-10-10T15:35:50.349Z,21.90
2022-10-10T15:38:19.275Z,21.80
2022-10-10T15:40:58.073Z,21.90
2022-10-10T15:43:27.136Z,21.70
2022-10-10T15:45:59.081Z,21.70
2022-10-10T15:48:29.756Z,21.60
2022-10-10T15:50:57.934Z,21.60
2022-10-10T15:53:27.465Z,21.60
2022-10-10T15:55:55.888Z,21.40
2022-10-10T15:58:24.004Z,21.40
2022-10-10T16:00:52.217Z,21.40
2022-10-10T16:03:20.771Z,21.40
2022-10-10T16:05:51.139Z,21.30
2022-10-10T16:08:19.308Z,21.20
2022-10-10T16:10:47.544Z,21.10
2022-10-10T16:13:15.894Z,21.10
2022-10-10T16:15:44.266Z,20.90
2022-10-10T16:18:12.382Z,20.70
2022-10-10T16:20:40.685Z,20.50
2022-10-10T16:23:11.396Z,20.40
2022-10-10T16:25:39.570Z,20.20
2022-10-10T16:28:08.067Z,20.10
2022-10-10T16:30:36.299Z,19.90
2022-10-10T16:33:04.748Z,19.80
2022-10-10T16:35:38.134Z,19.60
2022-10-10T16:38:06.985Z,19.50
2022-10-10T16:40:38.567Z,19.40
2022-10-10T16:43:06.850Z,19.20
2022-10-10T16:45:35.820Z,19.20
2022-10-10T16:48:03.960Z,19.10
2022-10-10T16:50:32.119Z,18.90
2022-10-10T16:53:01.035Z,18.80
2022-10-10T16:55:29.160Z,18.70
2022-10-10T16:57:59.344Z,18.60
2022-10-10T17:00:27.726Z,18.60
2022-10-10T17:02:55.805Z,18.50
2022-10-10T17:05:24.531Z,18.40
2022-10-10T17:07:53.886Z,18.50
2022-10-10T17:10:21.976Z,18.40
2022-10-10T17:12:50.524Z,18.40
2022-10-10T17:15:20.552Z,18.40
2022-10-10T17:17:48.649Z,18.30
2022-10-10T17:20:19.004Z,18.30
2022-10-10T17:22:47.435Z,18.20
2022-10-10T17:25:15.756Z,18.20
2022-10-10T17:27:43.744Z,18.10
2022-10-10T17:30:14.126Z,18.00
2022-10-10T17:32:44.267Z,18.00
2022-10-10T17:35:12.932Z,17.90
2022-10-10T17:37:41.280Z,17.80
2022-10-10T17:40:10.790Z,17.70
2022-10-10T17:42:39.488Z,17.70
2022-10-10T17:45:09.659Z,17.60
2022-10-10T17:47:37.863Z,17.50
2022-10-10T17:50:11.308Z,17.40
2022-10-10T17:52:39.621Z,17.30
2022-10-10T17:55:08.786Z,17.20
2022-10-10T17:57:39.284Z,17.10
2022-10-10T18:00:09.183Z,17.10
2022-10-10T18:02:37.467Z,17.00
2022-10-10T18:05:07.971Z,17.00
2022-10-10T18:07:37.594Z,17.00
2022-10-10T18:10:07.032Z,17.00
2022-10-10T18:12:35.664Z,16.90
2022-10-10T18:15:03.985Z,17.00
2022-10-10T18:17:32.406Z,17.10
2022-10-10T18:20:00.552Z,16.90
2022-10-10T18:22:30.100Z,17.00
2022-10-10T18:24:58.225Z,17.00
2022-10-10T18:27:26.898Z,17.00
2022-10-10T18:29:55.431Z,17.10
2022-10-10T18:32:23.671Z,17.10
2022-10-10T18:34:51.816Z,17.10
2022-10-10T18:37:20.116Z,17.10
2022-10-10T18:39:49.668Z,17.00
2022-10-10T18:42:18.156Z,17.00
2022-10-10T18:44:46.506Z,17.00
2022-10-10T18:47:15.113Z,16.90
2022-10-10T18:49:43.303Z,16.90
2022-10-10T18:52:11.652Z,16.90
2022-10-10T18:54:40.153Z,16.80
2022-10-10T18:57:09.596Z,16.80
2022-10-10T18:59:38.123Z,16.80
2022-10-10T19:02:06.369Z,16.70
2022-10-10T19:04:35.024Z,16.70
2022-10-10T19:07:03.275Z,16.70
2022-10-10T19:09:33.006Z,16.80
2022-10-10T19:12:01.144Z,16.70
2022-10-10T19:14:31.046Z,16.70
2022-10-10T19:16:59.638Z,16.80
2022-10-10T19:19:27.817Z,16.90
2022-10-10T19:21:55.967Z,16.90
2022-10-10T19:24:24.165Z,16.90
2022-10-10T19:26:56.814Z,16.80
2022-10-10T19:29:27.054Z,16.90
2022-10-10T19:31:57.026Z,16.90
2022-10-10T19:34:25.152Z,16.90
2022-10-10T19:36:53.636Z,16.90
2022-10-10T19:39:21.950Z,16.90
2022-10-10T19:41:50.335Z,16.90
2022-10-10T19:44:18.559Z,17.00
2022-10-10T19:46:46.761Z,16.90
2022-10-10T19:49:16.519Z,16.90
2022-10-10T19:51:44.987Z,16.90
2022-10-10T19:54:13.144Z,16.90
2022-10-10T19:56:41.447Z,16.90
2022-10-10T19:59:10.055Z,16.80
2022-10-10T20:01:38.462Z,16.80
2022-10-10T20:04:06.967Z,16.80
2022-10-10T20:06:36.932Z,16.70
2022-10-10T20:09:10.452Z,16.70
2022-10-10T20:11:39.864Z,16.70
2022-10-10T20:14:08.075Z,16.70
2022-10-10T20:16:36.546Z,16.60
2022-10-10T20:19:07.126Z,16.60
2022-10-10T20:21:36.692Z,16.60
2022-10-10T20:24:08.795Z,16.60
2022-10-10T20:26:38.473Z,16.60
2022-10-10T20:29:08.281Z,16.60
2022-10-10T20:31:38.495Z,16.60
2022-10-10T20:34:08.519Z,16.60
2022-10-10T20:36:39.196Z,16.50
2022-10-10T20:39:12.740Z,16.40
2022-10-10T20:41:43.152Z,16.50
2022-10-10T20:44:14.817Z,16.50
2022-10-10T20:46:46.858Z,16.60
2022-10-10T20:49:18.941Z,16.50
2022-10-10T20:51:52.001Z,16.50
2022-10-10T20:54:23.442Z,16.40
2022-10-10T20:56:52.460Z,16.40
2022-10-10T20:59:24.728Z,16.40
2022-10-10T21:01:53.116Z,16.40
2022-10-10T21:04:21.366Z,16.30
2022-10-10T21:06:50.949Z,16.30
2022-10-10T21:09:19.457Z,16.30
2022-10-10T21:11:50.987Z,16.30
2022-10-10T21:14:19.831Z,16.20
2022-10-10T21:16:48.408Z,16.20
2022-10-10T21:19:16.939Z,16.20
2022-10-10T21:21:45.205Z,16.20
2022-10-10T21:24:15.876Z,16.20
2022-10-10T21:26:45.421Z,16.10
2022-10-10T21:29:14.093Z,16.20
2022-10-10T21:31:42.806Z,16.10
2022-10-10T21:34:17.466Z,16.00
2022-10-10T21:36:46.391Z,16.10
2022-10-10T21:39:16.015Z,16.00
2022-10-10T21:41:44.590Z,15.90
2022-10-10T21:44:12.725Z,16.00
2022-10-10T21:46:41.378Z,15.90
2022-10-10T21:49:12.861Z,15.80
2022-10-10T21:51:46.387Z,16.00
2022-10-10T21:54:16.622Z,16.00
2022-10-10T21:56:45.238Z,16.00
2022-10-10T21:59:13.567Z,15.90
2022-10-10T22:01:42.868Z,15.90
2022-10-10T22:09:59.827Z,16.00
2022-10-10T22:23:37.949Z,15.80
